Time;durP1;ratioP1;P1;durP2;ratioP2;P2;SDS_P1;SDS_P2;PMS_P1;PMS_P2;Temp;Humidity;BMP_temperature;BMP_pressure;BME280_temperature;BME280_humidity;BME280_pressure;Samples;Min_cycle;Max_cycle;Signal;HPM_P1;HPM_P2
2023/09/20 00:00:57;;;;;;;13.60;9.90;;;16.70;88.40;;;;;;4954702;29;20023;-83
2023/09/20 00:03:25;;;;;;;12.50;10.17;;;16.60;88.30;;;;;;4953538;28;20023;-83
2023/09/20 00:05:52;;;;;;;13.32;9.98;;;16.60;88.30;;;;;;4952655;28;20035;-85
2023/09/20 00:08:18;;;;;;;11.15;9.38;;;16.70;88.30;;;;;;4955619;28;20042;-83
2023/09/20 00:10:45;;;;;;;14.55;11.35;;;16.60;88.20;;;;;;4939194;29;20036;-84
2023/09/20 00:13:11;;;;;;;14.82;11.05;;;16.70;88.40;;;;;;4941740;29;20516;-82
2023/09/20 00:15:40;;;;;;;12.88;9.75;;;16.60;88.30;;;;;;4938094;28;20038;-84
2023/09/20 00:18:06;;;;;;;17.15;11.48;;;16.60;88.50;;;;;;4940704;29;20023;-83
2023/09/20 00:20:33;;;;;;;16.10;10.70;;;16.50;88.80;;;;;;4958665;28;20050;-83
2023/09/20 00:23:00;;;;;;;14.23;9.73;;;16.50;88.80;;;;;;4946827;29;20023;-85
2023/09/20 00:25:27;;;;;;;13.68;10.27;;;16.50;88.90;;;;;;4940438;29;20031;-85
2023/09/20 00:27:53;;;;;;;12.00;9.55;;;16.40;88.90;;;;;;4942239;29;20023;-86
2023/09/20 00:30:19;;;;;;;13.23;10.82;;;16.40;88.90;;;;;;4958410;29;20126;-84
2023/09/20 00:32:45;;;;;;;12.65;9.90;;;16.40;89.00;;;;;;4958075;28;20015;-85
2023/09/20 00:35:14;;;;;;;11.55;10.35;;;16.40;89.10;;;;;;4941278;29;20027;-84
2023/09/20 00:37:47;;;;;;;12.30;10.18;;;16.30;89.30;;;;;;4941263;29;20050;-84
2023/09/20 00:40:21;;;;;;;15.43;10.27;;;16.30;89.50;;;;;;4957680;29;20053;-84
2023/09/20 00:42:57;;;;;;;13.77;11.32;;;16.30;89.40;;;;;;4957112;29;20027;-84
2023/09/20 00:45:23;;;;;;;15.23;10.50;;;16.30;89.50;;;;;;4957162;29;20023;-85
2023/09/20 00:47:55;;;;;;;14.45;11.55;;;16.20;89.60;;;;;;4958027;29;20036;-84
2023/09/20 00:50:22;;;;;;;10.55;9.45;;;16.10;89.80;;;;;;4965272;28;20182;-83
2023/09/20 00:52:51;;;;;;;12.75;9.15;;;16.10;89.90;;;;;;4967907;29;20175;-84
2023/09/20 00:55:24;;;;;;;17.58;9.77;;;16.10;90.00;;;;;;4959242;28;20027;-85
2023/09/20 00:57:53;;;;;;;11.45;10.27;;;16.10;90.00;;;;;;4940093;29;20027;-85
2023/09/20 01:00:29;;;;;;;13.95;10.48;;;16.10;90.10;;;;;;4956402;28;20037;-85
2023/09/20 01:02:57;;;;;;;12.10;9.98;;;16.00;90.10;;;;;;4955256;28;20031;-85
2023/09/20 01:05:25;;;;;;;16.35;10.80;;;16.00;90.20;;;;;;4938900;29;20106;-84
2023/09/20 01:07:55;;;;;;;12.18;10.05;;;15.90;90.30;;;;;;4956592;29;20023;-85
2023/09/20 01:10:25;;;;;;;12.05;10.60;;;15.90;90.40;;;;;;4956820;29;20031;-86
2023/09/20 01:12:55;;;;;;;11.40;9.90;;;15.90;90.40;;;;;;4959962;29;20026;-84
2023/09/20 01:15:22;;;;;;;15.38;9.50;;;15.90;90.40;;;;;;4947164;29;20047;-85
2023/09/20 01:17:49;;;;;;;13.27;10.02;;;15.80;90.40;;;;;;4940163;29;20031;-84
2023/09/20 01:20:19;;;;;;;14.77;10.98;;;15.80;90.40;;;;;;4939259;29;20031;-84
2023/09/20 01:22:50;;;;;;;12.77;11.02;;;15.80;90.50;;;;;;4938926;29;20031;-84
2023/09/20 01:25:24;;;;;;;12.88;10.82;;;15.80;90.60;;;;;;4938788;29;20026;-84
2023/09/20 01:27:55;;;;;;;13.07;10.10;;;15.70;90.60;;;;;;4939002;29;20027;-84
2023/09/20 01:30:25;;;;;;;14.75;10.68;;;15.70;90.60;;;;;;4938459;29;20040;-84
2023/09/20 01:33:01;;;;;;;12.13;9.95;;;15.70;90.60;;;;;;4956576;29;20074;-83
2023/09/20 01:35:29;;;;;;;12.10;10.32;;;15.70;90.70;;;;;;4957862;29;20630;-85
2023/09/20 01:37:55;;;;;;;12.77;10.23;;;15.60;90.70;;;;;;4952985;29;20127;-84
2023/09/20 01:40:26;;;;;;;16.40;11.23;;;15.60;90.70;;;;;;4943420;28;20501;-84
2023/09/20 01:42:53;;;;;;;12.18;10.18;;;15.60;90.80;;;;;;4955993;29;20047;-85
2023/09/20 01:45:20;;;;;;;12.90;10.00;;;15.60;90.80;;;;;;4938245;29;20027;-83
2023/09/20 01:47:51;;;;;;;13.45;10.98;;;15.60;90.90;;;;;;4938683;29;20122;-84
2023/09/20 01:50:21;;;;;;;13.50;10.80;;;15.50;90.90;;;;;;4938948;29;20035;-84
2023/09/20 01:52:55;;;;;;;11.05;9.70;;;15.50;91.00;;;;;;4943250;29;20033;-84
2023/09/20 01:55:22;;;;;;;12.18;9.35;;;15.50;91.10;;;;;;4939069;29;20035;-85
2023/09/20 01:57:49;;;;;;;11.80;10.05;;;15.40;91.10;;;;;;4953828;29;20078;-84
2023/09/20 02:00:22;;;;;;;13.68;9.95;;;15.40;91.10;;;;;;4955401;28;20027;-84
2023/09/20 02:02:56;;;;;;;14.02;9.73;;;15.40;91.20;;;;;;4937995;29;20046;-85
2023/09/20 02:05:23;;;;;;;12.57;10.93;;;15.40;91.20;;;;;;4955009;28;20058;-83
2023/09/20 02:07:51;;;;;;;11.80;10.43;;;15.40;91.20;;;;;;4955189;29;20107;-84
2023/09/20 02:10:17;;;;;;;13.38;10.73;;;15.40;91.20;;;;;;4955295;29;20037;-84
2023/09/20 02:12:52;;;;;;;13.88;10.02;;;15.30;91.20;;;;;;4955120;28;20031;-84
2023/09/20 02:15:18;;;;;;;14.32;10.10;;;15.30;91.30;;;;;;4938018;29;20031;-83
2023/09/20 02:17:45;;;;;;;11.93;10.43;;;15.30;91.30;;;;;;4938548;29;20027;-82
2023/09/20 02:20:12;;;;;;;15.43;11.30;;;15.30;91.30;;;;;;4955300;29;20031;-83
2023/09/20 02:22:40;;;;;;;15.05;10.50;;;15.30;91.40;;;;;;4954905;29;20425;-84
2023/09/20 02:25:11;;;;;;;;;;;15.20;91.50;;;;;;4961271;29;20015;-85
2023/09/20 02:27:51;;;;;;;12.40;10.82;;;15.20;91.40;;;;;;4955785;29;19946;-84
2023/09/20 02:30:28;;;;;;;13.73;10.55;;;15.10;91.60;;;;;;4955039;29;20106;-83
2023/09/20 02:32:57;;;;;;;12.55;10.77;;;15.10;91.60;;;;;;4954449;29;20115;-83
2023/09/20 02:35:27;;;;;;;12.25;11.02;;;15.10;91.70;;;;;;4954873;29;20039;-84
2023/09/20 02:37:54;;;;;;;13.50;10.18;;;15.10;91.70;;;;;;4954744;29;20023;-83
2023/09/20 02:40:23;;;;;;;14.38;10.30;;;15.10;91.60;;;;;;4954762;29;20143;-83
2023/09/20 02:43:00;;;;;;;10.93;9.77;;;15.10;91.60;;;;;;4954860;29;20077;-82
2023/09/20 02:45:29;;;;;;;12.02;10.05;;;15.10;91.60;;;;;;4937446;29;20202;-83
2023/09/20 02:47:55;;;;;;;13.85;10.93;;;15.10;91.90;;;;;;4937120;29;20035;-83
2023/09/20 02:50:27;;;;;;;13.75;10.52;;;15.10;91.60;;;;;;4937344;29;20038;-83
2023/09/20 02:52:55;;;;;;;14.90;10.25;;;15.10;91.60;;;;;;4954798;28;20027;-84
2023/09/20 02:55:22;;;;;;;13.32;10.40;;;15.10;91.50;;;;;;4936799;28;20489;-83
2023/09/20 02:57:52;;;;;;;13.70;9.90;;;15.10;91.50;;;;;;4954753;29;20019;-83
2023/09/20 03:00:21;;;;;;;12.68;10.93;;;15.00;91.50;;;;;;4955348;28;20535;-84
2023/09/20 03:02:51;;;;;;;13.90;10.52;;;15.00;91.50;;;;;;4938223;29;20086;-83
2023/09/20 03:05:21;;;;;;;12.23;10.63;;;15.00;91.50;;;;;;4968765;28;20039;-83
2023/09/20 03:07:49;;;;;;;13.73;10.85;;;15.00;91.50;;;;;;4967346;28;20023;-83
2023/09/20 03:10:19;;;;;;;12.35;10.02;;;14.90;91.60;;;;;;4937577;29;20037;-82
2023/09/20 03:12:46;;;;;;;14.02;10.45;;;14.90;91.60;;;;;;4954543;29;20125;-83
2023/09/20 03:15:21;;;;;;;;;;;14.90;91.70;;;;;;4957190;28;20396;-84
2023/09/20 03:17:48;;;;;;;14.20;9.73;;;14.90;91.60;;;;;;4975143;28;19938;-84
2023/09/20 03:20:23;;;;;;;14.52;10.23;;;14.80;91.70;;;;;;4942335;29;20038;-83
2023/09/20 03:22:53;;;;;;;13.15;10.95;;;14.90;91.80;;;;;;4954951;29;20023;-83
2023/09/20 03:25:20;;;;;;;11.85;10.07;;;14.80;91.80;;;;;;4975877;28;20041;-83
2023/09/20 03:27:48;;;;;;;16.47;10.83;;;14.80;91.80;;;;;;4976672;28;20038;-81
2023/09/20 03:30:14;;;;;;;15.43;11.10;;;14.80;91.80;;;;;;4958878;29;20051;-80
2023/09/20 03:32:42;;;;;;;11.80;10.00;;;14.80;91.80;;;;;;4954122;28;20098;-82
2023/09/20 03:35:10;;;;;;;12.20;9.98;;;14.80;91.80;;;;;;4936598;29;20035;-82
2023/09/20 03:37:40;;;;;;;12.82;10.02;;;14.80;91.70;;;;;;4936982;29;20592;-82
2023/09/20 03:40:17;;;;;;;14.15;10.60;;;14.90;91.70;;;;;;4954516;29;20031;-83
2023/09/20 03:42:48;;;;;;;12.00;10.43;;;14.90;91.70;;;;;;4938168;29;20023;-83
2023/09/20 03:45:15;;;;;;;13.90;9.82;;;14.90;91.70;;;;;;4942714;29;20035;-82
2023/09/20 03:47:41;;;;;;;;;;;14.90;91.60;;;;;;4968569;29;20024;-83
2023/09/20 03:50:09;;;;;;;18.55;10.65;;;15.00;91.50;;;;;;4946951;29;19915;-83
2023/09/20 03:52:37;;;;;;;;;;;14.90;91.70;;;;;;4936657;29;20039;-83
2023/09/20 03:55:06;;;;;;;12.18;9.98;;;14.90;91.60;;;;;;4967131;28;19914;-84
2023/09/20 03:57:33;;;;;;;16.98;10.68;;;14.90;91.60;;;;;;4938695;29;20106;-84
2023/09/20 03:59:59;;;;;;;12.95;9.77;;;15.00;91.60;;;;;;4945074;29;20023;-84
2023/09/20 04:02:26;;;;;;;15.07;10.80;;;15.10;91.60;;;;;;4975757;28;20425;-83
2023/09/20 04:04:55;;;;;;;16.83;10.82;;;15.20;91.30;;;;;;4940857;29;20281;-83
2023/09/20 04:07:26;;;;;;;14.07;10.60;;;15.40;91.00;;;;;;4957221;29;20095;-86
2023/09/20 04:09:52;;;;;;;16.10;10.52;;;15.60;90.70;;;;;;4957584;28;20551;-83
2023/09/20 04:12:19;;;;;;;15.15;11.20;;;15.80;90.30;;;;;;4958609;28;20033;-83
2023/09/20 04:14:45;;;;;;;13.63;10.75;;;16.00;90.10;;;;;;4957966;29;20051;-86
2023/09/20 04:17:11;;;;;;;13.60;10.02;;;16.30;88.80;;;;;;4957640;28;20028;-84
2023/09/20 04:19:40;;;;;;;22.10;10.27;;;16.50;87.70;;;;;;4957532;28;20039;-83
2023/09/20 04:22:06;;;;;;;11.98;10.30;;;16.40;87.10;;;;;;4939641;29;20054;-83
2023/09/20 04:24:33;;;;;;;14.25;9.82;;;16.30;87.30;;;;;;4957136;29;20036;-83
2023/09/20 04:26:59;;;;;;;14.32;10.27;;;16.10;87.90;;;;;;4939999;29;20027;-85
2023/09/20 04:29:27;;;;;;;11.70;10.03;;;15.90;88.50;;;;;;4940202;29;20062;-83
2023/09/20 04:31:53;;;;;;;12.60;10.48;;;15.80;89.00;;;;;;4944752;28;20035;-84
2023/09/20 04:34:21;;;;;;;12.32;9.57;;;15.70;89.20;;;;;;4948128;29;20495;-85
2023/09/20 04:36:47;;;;;;;16.98;11.90;;;15.60;89.50;;;;;;4939772;29;20037;-81
2023/09/20 04:39:17;;;;;;;12.38;10.02;;;15.60;89.80;;;;;;4939590;29;20063;-85
2023/09/20 04:41:42;;;;;;;13.43;9.93;;;15.60;89.60;;;;;;4940185;29;20023;-82
2023/09/20 04:44:08;;;;;;;15.05;11.45;;;15.60;89.70;;;;;;4939484;29;20083;-83
2023/09/20 04:46:39;;;;;;;13.43;9.73;;;15.60;89.60;;;;;;4939780;29;20114;-82
2023/09/20 04:49:05;;;;;;;12.77;10.57;;;15.60;89.40;;;;;;4939578;29;20084;-84
2023/09/20 04:51:32;;;;;;;13.80;10.57;;;15.70;89.30;;;;;;4956981;29;20023;-84
2023/09/20 04:53:58;;;;;;;12.40;9.47;;;15.70;89.30;;;;;;4942672;28;20055;-84
2023/09/20 04:56:25;;;;;;;11.15;9.07;;;15.70;89.00;;;;;;4961801;28;20532;-84
2023/09/20 04:58:51;;;;;;;14.00;10.63;;;15.80;89.00;;;;;;4960077;28;20033;-84
2023/09/20 05:01:17;;;;;;;15.15;10.52;;;15.90;88.80;;;;;;4951064;29;20031;-83
2023/09/20 05:03:43;;;;;;;19.67;10.32;;;15.90;88.60;;;;;;4948762;28;20357;-82
2023/09/20 05:06:09;;;;;;;16.40;10.68;;;16.00;88.30;;;;;;4968278;28;20043;-84
2023/09/20 05:08:36;;;;;;;13.65;10.70;;;16.00;87.90;;;;;;4948673;29;20035;-83
2023/09/20 05:11:04;;;;;;;15.13;10.35;;;16.10;87.90;;;;;;4951750;28;20130;-85
2023/09/20 05:13:30;;;;;;;;;;;16.10;87.70;;;;;;4962278;28;20028;-83
2023/09/20 05:15:56;;;;;;;13.05;10.50;;;16.20;87.70;;;;;;4951797;29;19907;-84
2023/09/20 05:18:22;;;;;;;13.73;9.15;;;16.20;87.10;;;;;;4976488;29;20074;-83
2023/09/20 05:20:49;;;;;;;12.10;8.82;;;16.30;87.10;;;;;;4971165;28;20038;-83
2023/09/20 05:23:15;;;;;;;11.13;9.77;;;16.30;86.80;;;;;;4970054;28;20075;-83
2023/09/20 05:25:40;;;;;;;13.52;8.75;;;16.40;86.80;;;;;;4957218;28;20499;-84
2023/09/20 05:28:06;;;;;;;11.82;10.07;;;16.40;86.60;;;;;;4939185;28;20027;-83
2023/09/20 05:30:33;;;;;;;17.38;9.63;;;16.40;86.40;;;;;;4939233;29;20446;-84
2023/09/20 05:32:59;;;;;;;13.20;9.17;;;16.50;86.40;;;;;;4940164;28;20440;-82
2023/09/20 05:35:28;;;;;;;15.95;12.15;;;16.60;86.20;;;;;;4961759;29;20027;-82
2023/09/20 05:37:54;;;;;;;15.55;9.90;;;16.60;85.90;;;;;;4968795;29;20370;-84
2023/09/20 05:40:21;;;;;;;12.82;10.90;;;16.60;86.20;;;;;;4956366;28;20058;-84
2023/09/20 05:42:50;;;;;;;15.07;10.32;;;16.70;85.70;;;;;;4954436;29;20400;-83
2023/09/20 05:45:16;;;;;;;11.63;10.15;;;16.70;85.60;;;;;;4955487;28;20473;-85
2023/09/20 05:47:43;;;;;;;12.13;10.17;;;16.80;85.50;;;;;;4938877;29;20039;-85
2023/09/20 05:50:10;;;;;;;22.08;10.43;;;16.80;85.10;;;;;;4939638;28;20049;-84
2023/09/20 05:52:49;;;;;;;14.90;10.13;;;16.90;84.90;;;;;;4956459;29;20031;-84
2023/09/20 05:55:15;;;;;;;16.90;10.57;;;16.90;84.60;;;;;;4923569;28;20035;-86
2023/09/20 05:57:44;;;;;;;15.80;9.65;;;17.00;84.40;;;;;;4938401;29;20026;-83
2023/09/20 06:00:16;;;;;;;14.15;10.82;;;17.10;84.10;;;;;;4954586;28;20046;-85
2023/09/20 06:02:43;;;;;;;13.90;11.38;;;17.10;84.40;;;;;;4939134;29;20031;-86
2023/09/20 06:05:11;;;;;;;20.83;12.07;;;17.20;84.60;;;;;;4955454;29;20020;-85
2023/09/20 06:07:37;;;;;;;13.13;11.73;;;17.20;84.10;;;;;;4937614;29;20104;-83
2023/09/20 06:10:04;;;;;;;17.83;11.60;;;17.30;83.60;;;;;;4937556;29;20134;-82
2023/09/20 06:12:31;;;;;;;;;;;17.40;83.60;;;;;;4956390;29;20164;-82
2023/09/20 06:14:57;;;;;;;14.52;9.85;;;17.40;83.60;;;;;;4949707;29;19920;-85
2023/09/20 06:17:23;;;;;;;18.45;11.32;;;17.40;83.00;;;;;;4967120;29;20111;-84
2023/09/20 06:19:49;;;;;;;12.93;10.18;;;17.50;83.00;;;;;;4935367;29;20390;-85
2023/09/20 06:22:16;;;;;;;15.23;10.43;;;17.60;82.70;;;;;;4940888;28;20070;-86
2023/09/20 06:24:46;;;;;;;11.25;9.27;;;17.60;82.20;;;;;;4962751;29;20139;-83
2023/09/20 06:27:11;;;;;;;15.43;8.95;;;17.70;81.90;;;;;;4940193;29;20082;-84
2023/09/20 06:29:37;;;;;;;12.80;10.07;;;17.80;81.50;;;;;;4955130;28;20078;-86
2023/09/20 06:32:04;;;;;;;13.05;9.70;;;17.80;81.50;;;;;;4941144;29;20082;-83
2023/09/20 06:34:30;;;;;;;15.43;9.73;;;17.90;81.50;;;;;;4959551;29;20030;-88
2023/09/20 06:36:56;;;;;;;17.52;11.00;;;18.00;81.40;;;;;;4953415;29;20023;-89
2023/09/20 06:39:25;;;;;;;14.02;9.18;;;18.00;81.30;;;;;;4931704;29;20122;-88
2023/09/20 06:41:51;;;;;;;15.55;10.95;;;18.10;80.90;;;;;;4937630;29;20051;-86
2023/09/20 06:44:17;;;;;;;18.75;11.98;;;18.20;80.90;;;;;;4937820;29;20511;-88
2023/09/20 06:46:43;;;;;;;16.02;10.55;;;18.20;81.50;;;;;;4937537;29;20033;-88
2023/09/20 06:49:09;;;;;;;12.75;10.60;;;18.30;80.70;;;;;;4955258;29;20113;-85
2023/09/20 06:51:35;;;;;;;11.25;9.68;;;18.40;80.30;;;;;;4955041;29;20025;-88
2023/09/20 06:54:01;;;;;;;13.35;10.30;;;18.40;79.80;;;;;;4954473;28;20019;-86
2023/09/20 06:56:27;;;;;;;13.00;9.88;;;18.50;79.50;;;;;;4937845;29;20060;-85
2023/09/20 06:58:55;;;;;;;16.60;10.45;;;18.70;79.30;;;;;;4955837;29;20058;-86
2023/09/20 07:01:24;;;;;;;13.18;10.00;;;18.80;78.90;;;;;;4956470;29;20079;-85
2023/09/20 07:03:52;;;;;;;17.48;10.43;;;18.90;78.70;;;;;;4958312;28;20023;-87
2023/09/20 07:06:17;;;;;;;17.15;9.32;;;19.00;78.60;;;;;;4970758;29;20025;-84
2023/09/20 07:08:43;;;;;;;15.35;10.60;;;19.20;77.50;;;;;;4965305;29;20095;-86
2023/09/20 07:11:11;;;;;;;17.13;11.20;;;19.80;77.50;;;;;;4954985;29;20107;-84
2023/09/20 07:13:37;;;;;;;20.83;10.43;;;21.40;74.20;;;;;;4964250;28;20027;-86
2023/09/20 07:16:05;;;;;;;19.52;8.13;;;23.20;68.70;;;;;;4942138;28;20425;-87
2023/09/20 07:18:34;;;;;;;14.25;9.85;;;24.80;63.30;;;;;;4945644;29;20030;-85
2023/09/20 07:20:59;;;;;;;18.27;10.05;;;25.50;61.20;;;;;;4954923;28;20173;-86
2023/09/20 07:23:29;;;;;;;11.55;9.18;;;26.30;58.60;;;;;;4955831;29;20035;-87
2023/09/20 07:25:55;;;;;;;14.07;8.68;;;27.40;57.20;;;;;;4955663;28;20023;-86
2023/09/20 07:28:24;;;;;;;15.03;9.80;;;28.10;54.40;;;;;;4937776;29;20031;-87
2023/09/20 07:30:50;;;;;;;13.25;8.77;;;28.70;52.80;;;;;;4954891;28;20039;-87
2023/09/20 07:33:23;;;;;;;13.17;9.37;;;29.70;50.70;;;;;;4937088;29;20031;-86
2023/09/20 07:35:58;;;;;;;11.98;8.95;;;29.80;49.50;;;;;;4937665;29;20028;-85
2023/09/20 07:40:51;;;;;;;12.63;9.32;;;30.80;48.60;;;;;;4955021;29;20019;-86
2023/09/20 07:43:20;;;;;;;13.10;8.97;;;31.40;46.50;;;;;;4953697;29;20063;-85
2023/09/20 07:45:46;;;;;;;13.07;8.98;;;31.00;46.50;;;;;;4933790;29;20266;-86
2023/09/20 07:48:21;;;;;;;22.33;8.97;;;31.10;45.90;;;;;;4947379;28;20122;-86
2023/09/20 07:50:51;;;;;;;12.20;8.48;;;31.00;46.00;;;;;;4936880;29;20032;-87
2023/09/20 07:53:21;;;;;;;13.07;8.07;;;;;;;;;;4936937;29;20059;-86
2023/09/20 07:56:07;;;;;;;17.83;12.30;;;;;;;;;;4937203;29;20750;-87
2023/09/20 07:58:36;;;;;;;16.52;9.07;;;33.20;43.60;;;;;;4954885;28;20106;-87
2023/09/20 08:01:12;;;;;;;14.48;8.60;;;34.40;41.90;;;;;;4937488;29;20037;-88
2023/09/20 08:03:38;;;;;;;14.50;11.52;;;35.00;41.30;;;;;;4954833;28;20082;-85
2023/09/20 08:06:09;;;;;;;10.88;9.25;;;35.80;40.60;;;;;;4939367;29;20114;-86
2023/09/20 08:08:37;;;;;;;20.42;9.40;;;36.20;39.40;;;;;;4951719;28;20046;-88
2023/09/20 08:11:03;;;;;;;10.77;8.63;;;35.90;38.80;;;;;;4944071;29;20027;-87
2023/09/20 08:13:29;;;;;;;11.18;7.55;;;35.80;38.60;;;;;;4955885;28;20079;-86
2023/09/20 08:15:55;;;;;;;13.10;7.78;;;35.40;38.60;;;;;;4954524;28;20078;-86
2023/09/20 08:21:05;;;;;;;13.90;7.47;;;34.50;39.20;;;;;;4954852;28;20041;-87
2023/09/20 08:59:55;;;;;;;10.33;7.13;;;33.30;40.00;;;;;;4971681;28;20185;-86
2023/09/20 09:02:24;;;;;;;14.95;8.43;;;34.00;40.00;;;;;;4960768;28;20285;-85
2023/09/20 09:04:53;;;;;;;8.75;6.90;;;34.30;39.80;;;;;;4940459;29;20027;-87
2023/09/20 09:07:23;;;;;;;9.43;7.88;;;34.80;39.20;;;;;;4940317;28;20445;-86
2023/09/20 09:09:50;;;;;;;9.55;8.27;;;34.60;39.20;;;;;;4960381;28;20042;-86
2023/09/20 09:12:16;;;;;;;16.70;13.77;;;35.00;39.00;;;;;;4971830;28;20030;-86
2023/09/20 09:14:42;;;;;;;;;;;34.80;38.80;;;;;;4940838;29;20061;-88
2023/09/20 09:17:08;;;;;;;;;;;34.70;38.90;;;;;;4959236;29;19907;-87
2023/09/20 09:19:35;;;;;;;9.98;7.63;;;33.70;39.90;;;;;;4940211;29;19917;-86
2023/09/20 09:22:02;;;;;;;10.30;7.15;;;33.90;39.80;;;;;;4957821;29;20031;-86
2023/09/20 09:24:41;;;;;;;14.45;7.13;;;34.80;39.00;;;;;;4957994;28;20023;-87
2023/09/20 09:27:08;;;;;;;9.60;7.07;;;35.40;38.20;;;;;;4957537;29;20027;-86
2023/09/20 09:29:35;;;;;;;16.83;7.43;;;36.00;37.50;;;;;;4961877;28;20051;-87
2023/09/20 09:32:02;;;;;;;13.35;7.00;;;35.60;37.30;;;;;;4959838;29;20027;-86
2023/09/20 09:34:28;;;;;;;13.07;7.82;;;35.60;37.50;;;;;;4941898;29;20023;-87
2023/09/20 09:36:54;;;;;;;10.93;7.93;;;35.60;37.60;;;;;;4958838;29;20395;-87
2023/09/20 09:39:20;;;;;;;13.85;7.03;;;36.10;37.20;;;;;;4940362;29;20152;-87
2023/09/20 09:41:46;;;;;;;12.50;6.57;;;36.10;36.50;;;;;;4957459;28;20023;-86
2023/09/20 09:44:13;;;;;;;8.43;7.45;;;35.50;37.00;;;;;;4957525;28;20070;-86
2023/09/20 09:46:41;;;;;;;11.85;6.95;;;36.00;37.20;;;;;;4952974;28;20031;-86
2023/09/20 09:49:11;;;;;;;7.85;7.05;;;37.20;36.10;;;;;;4940504;29;20031;-86
2023/09/20 09:51:50;;;;;;;12.80;7.15;;;37.30;35.30;;;;;;4974058;28;20039;-87
2023/09/20 09:54:17;;;;;;;20.67;6.72;;;37.40;35.10;;;;;;4947713;29;20036;-86
2023/09/20 09:56:44;;;;;;;13.80;7.65;;;37.20;34.50;;;;;;4973261;28;20069;-85
2023/09/20 09:59:10;;;;;;;13.70;6.95;;;36.90;34.50;;;;;;4961837;28;20022;-89
2023/09/20 10:01:40;;;;;;;13.00;7.13;;;36.60;34.70;;;;;;4958527;28;20557;-89
2023/09/20 10:04:13;;;;;;;7.78;6.32;;;37.00;35.00;;;;;;4958704;28;20027;-86
2023/09/20 10:06:44;;;;;;;7.63;6.68;;;;;;;;;;4956312;29;20024;-89
2023/09/20 10:09:11;;;;;;;10.52;6.57;;;;;;;;;;4957229;29;20035;-87
2023/09/20 10:11:38;;;;;;;12.27;7.15;;;;;;;;;;4956122;28;20055;-87
2023/09/20 10:14:09;;;;;;;9.90;7.63;;;;;;;;;;4956606;28;20508;-86
2023/09/20 10:16:42;;;;;;;9.70;7.20;;;;;;;;;;4939359;29;20193;-89
2023/09/20 10:19:10;;;;;;;14.65;7.00;;;;;;;;;;4956858;29;20039;-88
2023/09/20 10:21:39;;;;;;;10.93;7.55;;;;;;;;;;4947442;29;20023;-89
2023/09/20 10:24:07;;;;;;;14.07;7.93;;;;;;;;;;4974855;29;20033;-89
2023/09/20 10:26:35;;;;;;;12.93;8.75;;;;;;;;;;4957899;29;20034;-86
2023/09/20 10:29:21;;;;;;;10.32;8.00;;;;;;;;;;4957172;28;20055;-87
2023/09/20 10:31:47;;;;;;;;;;;;;;;;;;4946218;28;20046;-88
2023/09/20 10:34:14;;;;;;;14.97;8.03;;;;;;;;;;4950498;29;19918;-89
2023/09/20 10:36:51;;;;;;;12.50;9.00;;;30.60;40.00;;;;;;4973305;28;20300;-90
2023/09/20 10:39:17;;;;;;;14.10;8.60;;;27.50;45.40;;;;;;4945316;29;20376;-87
2023/09/20 10:41:44;;;;;;;10.98;8.20;;;27.00;45.80;;;;;;4951532;29;20027;-87
2023/09/20 10:44:30;;;;;;;14.15;9.23;;;26.70;46.20;;;;;;4955889;29;20030;-87
2023/09/20 10:47:08;;;;;;;15.48;7.90;;;26.60;46.60;;;;;;4974398;28;20079;-87
2023/09/20 10:49:49;;;;;;;13.10;9.55;;;26.40;47.20;;;;;;4971821;28;20039;-87
2023/09/20 10:52:33;;;;;;;13.43;9.75;;;26.30;47.10;;;;;;4957698;29;20012;-87
2023/09/20 10:55:22;;;;;;;17.02;8.80;;;26.10;47.30;;;;;;4957786;29;20031;-88
2023/09/20 10:57:49;;;;;;;14.15;9.27;;;26.00;47.80;;;;;;4940131;29;20391;-87
2023/09/20 11:00:22;;;;;;;23.70;9.48;;;26.00;47.90;;;;;;4960203;29;20090;-85
2023/09/20 11:02:52;;;;;;;13.68;8.30;;;25.90;48.10;;;;;;4966277;29;20370;-87
2023/09/20 11:05:18;;;;;;;13.50;8.00;;;25.80;47.90;;;;;;4943685;29;20023;-86
2023/09/20 11:07:47;;;;;;;8.02;6.72;;;25.80;47.70;;;;;;4954145;29;20055;-87
2023/09/20 11:10:19;;;;;;;12.85;8.38;;;25.70;47.50;;;;;;4955832;28;20043;-87
2023/09/20 11:12:45;;;;;;;17.25;8.95;;;25.50;47.40;;;;;;4938114;29;20027;-85
2023/09/20 11:15:13;;;;;;;16.58;8.88;;;25.40;47.50;;;;;;4938011;29;20038;-86
2023/09/20 11:17:40;;;;;;;13.77;8.30;;;25.30;47.90;;;;;;4955047;29;20027;-87
2023/09/20 11:20:08;;;;;;;11.27;8.50;;;25.30;47.80;;;;;;4955543;29;20425;-88
2023/09/20 11:22:35;;;;;;;13.13;8.77;;;25.30;48.60;;;;;;4937241;29;20035;-86
2023/09/20 11:25:03;;;;;;;18.67;8.48;;;25.20;48.50;;;;;;4954638;29;20019;-86
2023/09/20 11:27:29;;;;;;;28.98;10.75;;;25.20;48.50;;;;;;4937697;29;20047;-86
2023/09/20 11:30:08;;;;;;;13.65;8.18;;;25.20;48.60;;;;;;4954699;29;20098;-87
2023/09/20 11:32:33;;;;;;;10.75;7.43;;;25.20;48.60;;;;;;4955984;29;20023;-86
2023/09/20 11:35:00;;;;;;;12.00;8.30;;;25.10;48.60;;;;;;4956932;29;20114;-89
2023/09/20 11:37:26;;;;;;;11.83;8.00;;;25.10;48.70;;;;;;4956165;29;20039;-85
2023/09/20 11:39:55;;;;;;;12.23;7.95;;;25.10;48.60;;;;;;4940259;29;20059;-85
2023/09/20 11:42:26;;;;;;;14.57;6.78;;;25.10;48.70;;;;;;4938919;29;20015;-86
2023/09/20 11:45:03;;;;;;;14.43;7.72;;;25.00;48.70;;;;;;4940448;29;20115;-85
2023/09/20 11:47:34;;;;;;;13.43;8.30;;;25.00;48.90;;;;;;4939886;29;20028;-87
2023/09/20 11:50:00;;;;;;;15.85;8.32;;;24.90;48.90;;;;;;4954718;28;20040;-87
2023/09/20 11:52:27;;;;;;;11.68;8.00;;;24.90;49.40;;;;;;4966581;28;20130;-86
2023/09/20 11:55:03;;;;;;;17.27;8.32;;;24.90;49.50;;;;;;4938357;29;20153;-86
2023/09/20 11:57:29;;;;;;;8.70;5.90;;;25.00;49.60;;;;;;4944181;28;20075;-86
2023/09/20 11:59:59;;;;;;;15.32;7.75;;;24.90;49.40;;;;;;4966874;28;20027;-85
2023/09/20 12:02:25;;;;;;;13.25;7.35;;;24.90;49.10;;;;;;4957418;28;20020;-85
2023/09/20 12:04:51;;;;;;;12.07;7.75;;;24.80;49.00;;;;;;4938328;29;20027;-85
2023/09/20 12:07:17;;;;;;;12.45;7.60;;;24.80;48.80;;;;;;4939646;28;20031;-87
2023/09/20 12:09:43;;;;;;;29.07;11.53;;;24.90;48.90;;;;;;4954794;28;20054;-85
2023/09/20 12:12:10;;;;;;;13.57;7.50;;;24.90;49.10;;;;;;4938442;28;20024;-85
2023/09/20 12:14:38;;;;;;;17.02;8.55;;;25.00;48.50;;;;;;4955548;29;20023;-85
2023/09/20 12:17:06;;;;;;;11.80;6.97;;;25.10;48.20;;;;;;4954439;29;20062;-86
2023/09/20 12:19:32;;;;;;;38.15;7.97;;;25.30;47.90;;;;;;4954856;29;20027;-86
2023/09/20 12:22:00;;;;;;;14.80;9.05;;;25.30;48.00;;;;;;4941178;29;20030;-86
2023/09/20 12:24:26;;;;;;;10.43;7.10;;;25.40;48.10;;;;;;4941815;29;20031;-86
2023/09/20 12:26:53;;;;;;;20.85;8.73;;;25.60;47.80;;;;;;4958690;29;20082;-86
2023/09/20 12:29:18;;;;;;;14.32;7.85;;;25.50;47.80;;;;;;4940804;29;20122;-87
2023/09/20 12:31:47;;;;;;;20.27;9.65;;;25.40;48.10;;;;;;4942599;29;20023;-84
2023/09/20 12:34:13;;;;;;;15.35;7.90;;;25.30;48.30;;;;;;4959413;28;20031;-87
2023/09/20 12:36:39;;;;;;;13.97;7.17;;;25.20;48.30;;;;;;4945892;28;20035;-85
2023/09/20 12:39:08;;;;;;;14.15;7.43;;;25.00;48.50;;;;;;4954873;29;20015;-86
2023/09/20 12:41:37;;;;;;;14.85;8.77;;;24.90;48.90;;;;;;4969180;29;20027;-86
2023/09/20 12:44:03;;;;;;;12.18;7.80;;;24.90;49.10;;;;;;4937151;29;20485;-84
2023/09/20 12:46:31;;;;;;;10.45;7.55;;;24.90;48.90;;;;;;4950760;29;20169;-86
2023/09/20 12:48:58;;;;;;;13.70;7.85;;;24.90;49.00;;;;;;4957444;29;20035;-87
2023/09/20 12:51:25;;;;;;;14.38;7.28;;;25.00;49.00;;;;;;4958721;29;20114;-85
2023/09/20 12:53:51;;;;;;;12.48;7.30;;;25.00;49.10;;;;;;4941821;29;20023;-85
2023/09/20 12:56:17;;;;;;;12.50;7.60;;;25.00;49.00;;;;;;4958304;29;20035;-88
2023/09/20 12:58:43;;;;;;;11.38;7.25;;;25.00;49.30;;;;;;4957788;29;20035;-86
2023/09/20 13:01:10;;;;;;;12.43;8.35;;;25.00;49.50;;;;;;4956866;28;20031;-84
2023/09/20 13:03:40;;;;;;;14.27;9.35;;;25.00;49.30;;;;;;4941104;28;20605;-87
2023/09/20 13:06:08;;;;;;;12.43;8.15;;;25.00;49.20;;;;;;4940573;29;20163;-85
2023/09/20 13:08:34;;;;;;;15.68;8.68;;;25.10;49.20;;;;;;4939719;29;20035;-85
2023/09/20 13:11:00;;;;;;;13.25;7.13;;;25.10;49.10;;;;;;4957415;28;20167;-86
2023/09/20 13:13:26;;;;;;;11.95;7.18;;;25.00;49.00;;;;;;4956425;29;20076;-85
2023/09/20 13:15:52;;;;;;;13.18;7.57;;;25.00;49.00;;;;;;4956987;29;20023;-88
2023/09/20 13:18:18;;;;;;;10.75;8.00;;;24.90;49.40;;;;;;4957138;28;20476;-88
2023/09/20 13:20:44;;;;;;;11.77;9.10;;;24.90;49.80;;;;;;4956987;28;20027;-87
2023/09/20 13:23:11;;;;;;;13.68;8.18;;;24.80;50.10;;;;;;4939904;29;20023;-84
2023/09/20 13:25:40;;;;;;;11.35;7.53;;;24.70;50.10;;;;;;4957391;28;20023;-86
2023/09/20 13:28:09;;;;;;;16.02;8.35;;;24.60;50.10;;;;;;4940600;28;20059;-87